createdAt,value
2022-11-30T00:01:17.403Z,5.18
2022-11-30T00:03:44.979Z,4.57
2022-11-30T00:06:13.475Z,4.13
2022-11-30T00:08:41.001Z,5.05
2022-11-30T00:11:09.090Z,4.47
2022-11-30T00:13:36.760Z,4.47
2022-11-30T00:16:05.921Z,4.47
2022-11-30T00:18:33.467Z,4.43
2022-11-30T00:21:01.884Z,4.30
2022-11-30T00:23:32.759Z,4.22
2022-11-30T00:26:01.369Z,4.40
2022-11-30T00:28:29.104Z,4.63
2022-11-30T00:31:00.016Z,4.15
2022-11-30T00:33:28.878Z,5.88
2022-11-30T00:35:57.124Z,4.95
2022-11-30T00:38:24.687Z,5.10
2022-11-30T00:40:52.389Z,4.55
2022-11-30T00:43:19.882Z,4.63
2022-11-30T00:45:47.409Z,4.60
2022-11-30T00:48:14.963Z,4.85
2022-11-30T00:50:43.805Z,4.53
2022-11-30T00:53:11.295Z,5.55
2022-11-30T00:55:38.789Z,4.30
2022-11-30T00:58:07.131Z,5.18
2022-11-30T01:00:34.652Z,4.15
2022-11-30T01:03:02.853Z,4.63
2022-11-30T01:05:30.546Z,4.45
2022-11-30T01:08:02.071Z,4.80
2022-11-30T01:10:29.830Z,4.05
2022-11-30T01:12:57.366Z,5.00
2022-11-30T01:15:24.875Z,5.18
2022-11-30T01:17:52.349Z,4.88
2022-11-30T01:20:19.960Z,4.68
2022-11-30T01:22:47.453Z,4.15
2022-11-30T01:25:16.530Z,4.63
2022-11-30T01:27:44.102Z,4.28
2022-11-30T01:30:12.103Z,4.82
2022-11-30T01:32:39.640Z,4.95
2022-11-30T01:35:07.986Z,4.93
2022-11-30T01:37:35.541Z,4.93
2022-11-30T01:40:03.108Z,5.20
2022-11-30T01:42:33.020Z,5.55
2022-11-30T01:45:01.516Z,4.75
2022-11-30T01:47:31.125Z,4.72
2022-11-30T01:50:02.302Z,4.40
2022-11-30T01:52:32.920Z,4.55
2022-11-30T01:55:04.229Z,3.90
2022-11-30T01:57:36.844Z,3.53
2022-11-30T02:00:08.191Z,3.90
2022-11-30T02:02:41.326Z,4.53
2022-11-30T02:05:09.097Z,5.37
2022-11-30T02:07:36.940Z,3.45
2022-11-30T02:10:06.600Z,4.07
2022-11-30T02:12:38.650Z,4.32
2022-11-30T02:15:08.934Z,3.42
2022-11-30T02:17:41.325Z,4.13
2022-11-30T02:20:23.722Z,3.63
2022-11-30T02:22:59.514Z,4.07
2022-11-30T02:25:29.943Z,3.50
2022-11-30T02:28:08.024Z,3.83
2022-11-30T02:30:38.835Z,3.53
2022-11-30T02:33:08.303Z,4.50
2022-11-30T02:35:37.194Z,4.55
2022-11-30T02:38:05.125Z,3.85
2022-11-30T02:40:32.667Z,4.20
2022-11-30T02:43:01.145Z,3.95
2022-11-30T02:45:31.606Z,3.42
2022-11-30T02:48:03.903Z,3.60
2022-11-30T02:50:34.155Z,4.07
2022-11-30T02:53:01.794Z,4.47
2022-11-30T02:55:29.447Z,4.10
2022-11-30T02:57:56.913Z,4.10
2022-11-30T03:00:24.488Z,3.70
2022-11-30T03:02:51.993Z,4.22
2022-11-30T03:05:20.834Z,3.60
2022-11-30T03:07:48.560Z,4.35
2022-11-30T03:10:16.396Z,3.65
2022-11-30T03:12:43.891Z,4.50
2022-11-30T03:15:11.970Z,4.32
2022-11-30T03:17:39.667Z,3.80
2022-11-30T03:20:08.090Z,3.90
2022-11-30T03:22:37.040Z,4.00
2022-11-30T03:25:04.684Z,4.30
2022-11-30T03:27:32.350Z,3.90
2022-11-30T03:29:59.919Z,4.95
2022-11-30T03:32:27.673Z,3.42
2022-11-30T03:34:55.146Z,3.83
2022-11-30T03:37:22.622Z,4.50
2022-11-30T03:39:57.758Z,4.03
2022-11-30T03:42:25.782Z,3.70
2022-11-30T03:44:53.226Z,4.20
2022-11-30T03:47:20.726Z,4.07
2022-11-30T03:49:48.206Z,3.17
2022-11-30T03:52:15.923Z,3.97
2022-11-30T03:54:43.457Z,3.45
2022-11-30T03:57:12.321Z,3.47
2022-11-30T03:59:39.791Z,3.58
2022-11-30T04:02:07.377Z,4.30
2022-11-30T04:04:34.906Z,3.47
2022-11-30T04:07:02.357Z,3.13
2022-11-30T04:09:29.857Z,3.72
2022-11-30T04:11:57.365Z,4.40
2022-11-30T04:14:26.155Z,3.88
2022-11-30T04:16:53.690Z,3.75
2022-11-30T04:19:21.189Z,3.97
2022-11-30T04:21:48.668Z,3.15
2022-11-30T04:24:16.122Z,3.72
2022-11-30T04:26:43.775Z,3.65
2022-11-30T04:29:11.261Z,3.28
2022-11-30T04:31:40.192Z,3.92
2022-11-30T04:34:07.783Z,4.18
2022-11-30T04:36:35.316Z,4.43
2022-11-30T04:39:02.823Z,3.80
2022-11-30T04:41:30.670Z,4.38
2022-11-30T04:43:58.156Z,3.47
2022-11-30T04:46:25.672Z,4.15
2022-11-30T04:48:54.546Z,4.18
2022-11-30T04:51:22.010Z,3.45
2022-11-30T04:53:49.519Z,3.28
2022-11-30T04:56:17.009Z,3.25
2022-11-30T04:58:44.495Z,3.55
2022-11-30T05:01:11.956Z,3.35
2022-11-30T05:03:39.442Z,3.70
2022-11-30T05:06:08.458Z,3.70
2022-11-30T05:08:36.002Z,3.33
2022-11-30T05:11:03.595Z,3.53
2022-11-30T05:13:31.722Z,3.95
2022-11-30T05:15:59.303Z,4.55
2022-11-30T05:18:27.197Z,4.15
2022-11-30T05:20:54.713Z,4.05
2022-11-30T05:23:23.574Z,3.97
2022-11-30T05:25:51.723Z,4.13
2022-11-30T05:28:19.232Z,3.63
2022-11-30T05:30:46.756Z,4.07
2022-11-30T05:33:14.592Z,3.83
2022-11-30T05:35:42.086Z,3.92
2022-11-30T05:38:09.763Z,3.63
2022-11-30T05:40:38.864Z,3.85
2022-11-30T05:43:06.944Z,3.45
2022-11-30T05:45:34.399Z,3.83
2022-11-30T05:48:01.911Z,3.80
2022-11-30T05:50:29.426Z,4.50
2022-11-30T05:52:57.200Z,4.22
2022-11-30T05:55:25.583Z,3.80
2022-11-30T05:57:54.410Z,3.80
2022-11-30T06:00:22.465Z,3.70
2022-11-30T06:02:50.073Z,4.20
2022-11-30T06:05:17.579Z,3.70
2022-11-30T06:07:45.102Z,4.15
2022-11-30T06:10:13.196Z,4.90
2022-11-30T06:12:40.724Z,3.63
2022-11-30T06:15:10.058Z,3.33
2022-11-30T06:17:38.216Z,3.95
2022-11-30T06:20:06.019Z,4.15
2022-11-30T06:22:33.505Z,4.03
2022-11-30T06:25:01.828Z,3.50
2022-11-30T06:27:31.278Z,4.65
2022-11-30T06:29:58.775Z,3.92
2022-11-30T06:32:27.640Z,4.60
2022-11-30T06:34:55.369Z,4.70
2022-11-30T06:37:22.953Z,4.25
2022-11-30T06:40:05.868Z,4.80
2022-11-30T06:42:33.937Z,4.63
2022-11-30T06:45:01.421Z,4.28
2022-11-30T06:47:30.276Z,4.05
2022-11-30T06:49:57.788Z,5.25
2022-11-30T06:52:25.306Z,4.35
2022-11-30T06:54:52.780Z,5.43
2022-11-30T06:57:20.290Z,5.03
2022-11-30T06:59:47.760Z,6.03
2022-11-30T07:02:18.485Z,5.43
2022-11-30T07:04:47.789Z,5.47
2022-11-30T07:07:15.477Z,5.80
2022-11-30T07:09:43.139Z,5.47
2022-11-30T07:12:10.628Z,4.68
2022-11-30T07:14:38.077Z,4.93
2022-11-30T07:17:05.863Z,5.10
2022-11-30T07:19:34.204Z,4.40
2022-11-30T07:22:03.414Z,5.80
2022-11-30T07:24:49.582Z,4.55
2022-11-30T07:27:19.793Z,4.93
2022-11-30T07:29:48.906Z,5.18
2022-11-30T07:32:16.455Z,4.88
2022-11-30T07:34:44.427Z,5.63
2022-11-30T07:37:13.713Z,4.93
2022-11-30T07:39:41.299Z,5.30
2022-11-30T07:42:08.798Z,6.07
2022-11-30T07:44:36.241Z,4.93
2022-11-30T07:47:03.721Z,5.60
2022-11-30T07:49:31.931Z,5.88
2022-11-30T07:51:59.356Z,4.95
2022-11-30T07:54:28.201Z,5.22
2022-11-30T07:56:55.738Z,4.80
2022-11-30T07:59:23.184Z,5.00
2022-11-30T08:01:50.833Z,4.22
2022-11-30T08:04:18.425Z,5.35
2022-11-30T08:06:46.275Z,5.05
2022-11-30T08:09:19.256Z,5.28
2022-11-30T08:11:49.948Z,4.57
2022-11-30T08:14:17.514Z,5.40
2022-11-30T08:16:45.084Z,5.53
2022-11-30T08:19:12.616Z,5.65
2022-11-30T08:21:40.134Z,5.63
2022-11-30T08:24:07.821Z,6.13
2022-11-30T08:26:35.367Z,6.18
2022-11-30T08:29:04.693Z,6.07
2022-11-30T08:31:32.926Z,5.45
2022-11-30T08:34:01.186Z,5.30
2022-11-30T08:36:31.500Z,6.28
2022-11-30T08:38:59.875Z,6.30
2022-11-30T08:41:27.741Z,6.47
2022-11-30T08:43:55.837Z,6.60
2022-11-30T08:49:21.411Z,6.03
2022-11-30T08:54:39.184Z,5.85
2022-11-30T08:57:06.708Z,5.28
2022-11-30T08:59:34.270Z,6.05
2022-11-30T09:02:03.337Z,5.22
2022-11-30T09:04:30.931Z,5.95
2022-11-30T09:07:00.808Z,6.93
2022-11-30T09:09:28.786Z,6.53
2022-11-30T09:12:30.721Z,6.57
2022-11-30T09:14:58.970Z,6.57
2022-11-30T09:17:28.151Z,5.72
2022-11-30T09:19:58.913Z,6.40
2022-11-30T09:22:26.523Z,6.43
2022-11-30T09:24:54.090Z,6.22
2022-11-30T09:27:21.724Z,6.70
2022-11-30T09:29:49.473Z,6.65
2022-11-30T09:32:17.052Z,6.93
2022-11-30T09:34:46.433Z,5.85
2022-11-30T09:37:14.135Z,6.07
2022-11-30T09:39:43.240Z,6.35
2022-11-30T09:42:19.727Z,6.38
2022-11-30T09:44:55.601Z,7.35
2022-11-30T09:47:38.029Z,6.72
2022-11-30T09:50:11.950Z,6.82
2022-11-30T09:52:42.152Z,6.05
2022-11-30T09:55:10.755Z,7.13
2022-11-30T09:57:44.523Z,6.70
2022-11-30T10:00:15.076Z,5.00
2022-11-30T10:02:42.888Z,5.32
2022-11-30T10:05:15.707Z,7.63
2022-11-30T10:07:53.091Z,7.00
2022-11-30T10:10:33.701Z,6.30
2022-11-30T10:13:07.905Z,6.10
2022-11-30T10:15:39.341Z,6.32
2022-11-30T10:18:14.314Z,5.43
2022-11-30T10:20:53.446Z,5.47
2022-11-30T10:23:32.431Z,5.13
2022-11-30T10:26:03.233Z,6.18
2022-11-30T10:28:48.349Z,5.55
2022-11-30T10:31:17.309Z,5.03
2022-11-30T10:33:46.759Z,5.38
2022-11-30T10:36:21.237Z,4.90
2022-11-30T10:38:49.588Z,5.70
2022-11-30T10:41:21.380Z,4.93
2022-11-30T10:43:52.853Z,4.68
2022-11-30T10:46:24.176Z,4.82
2022-11-30T10:48:56.281Z,5.28
2022-11-30T10:51:26.323Z,5.65
2022-11-30T10:53:54.184Z,6.13
2022-11-30T10:56:35.663Z,4.75
2022-11-30T10:59:05.822Z,7.35
2022-11-30T11:01:35.453Z,5.38
2022-11-30T11:04:10.600Z,5.63
2022-11-30T11:06:44.026Z,5.32
2022-11-30T11:09:24.288Z,5.63
2022-11-30T11:11:54.567Z,6.30
2022-11-30T11:14:23.113Z,6.28
2022-11-30T11:16:55.183Z,5.63
2022-11-30T11:19:33.738Z,4.97
2022-11-30T11:22:06.377Z,5.43
2022-11-30T11:24:34.777Z,5.57
2022-11-30T11:27:03.486Z,5.32
2022-11-30T11:29:33.719Z,4.93
2022-11-30T11:32:17.803Z,5.60
2022-11-30T11:34:50.837Z,5.35
2022-11-30T11:37:34.084Z,5.43
2022-11-30T11:40:07.768Z,5.20
2022-11-30T11:42:40.642Z,5.03
2022-11-30T11:45:15.988Z,6.47
2022-11-30T11:47:45.823Z,5.32
2022-11-30T11:50:43.285Z,6.28
2022-11-30T11:53:25.057Z,5.47
2022-11-30T11:55:54.042Z,5.15
2022-11-30T11:58:32.342Z,5.07
2022-11-30T12:01:37.590Z,4.90
2022-11-30T12:03:58.048Z,5.38
2022-11-30T12:06:26.782Z,4.60
2022-11-30T12:08:57.584Z,5.80
2022-11-30T12:11:27.809Z,5.85
2022-11-30T12:13:55.342Z,4.82
2022-11-30T12:16:32.452Z,5.18
2022-11-30T12:19:04.065Z,5.40
2022-11-30T12:21:37.462Z,4.75
2022-11-30T12:24:25.260Z,6.32
2022-11-30T12:26:58.044Z,4.90
2022-11-30T12:29:29.881Z,5.68
2022-11-30T12:32:11.250Z,4.85
2022-11-30T12:34:45.671Z,4.68
2022-11-30T12:37:15.522Z,5.07
2022-11-30T12:39:48.116Z,4.45
2022-11-30T12:42:18.124Z,4.03
2022-11-30T12:44:51.989Z,4.22
2022-11-30T12:47:26.728Z,4.60
2022-11-30T12:50:02.389Z,5.18
2022-11-30T12:52:36.136Z,4.40
2022-11-30T12:55:08.976Z,4.18
2022-11-30T12:57:39.236Z,5.10
2022-11-30T13:00:10.003Z,5.68
2022-11-30T13:02:45.117Z,3.97
2022-11-30T13:05:16.444Z,4.55
2022-11-30T13:07:46.075Z,4.75
2022-11-30T13:10:19.621Z,4.35
2022-11-30T13:12:50.350Z,5.55
2022-11-30T13:15:20.390Z,4.70
2022-11-30T13:17:49.748Z,5.15
2022-11-30T13:20:18.877Z,5.05
2022-11-30T13:22:49.475Z,4.30
2022-11-30T13:25:38.952Z,4.65
2022-11-30T13:28:13.499Z,4.60
2022-11-30T13:30:44.421Z,4.22
2022-11-30T13:33:31.392Z,4.00
2022-11-30T13:35:59.258Z,5.13
2022-11-30T13:38:42.307Z,4.32
2022-11-30T13:41:12.380Z,5.10
2022-11-30T13:43:42.731Z,4.55
2022-11-30T13:46:19.253Z,4.43
2022-11-30T13:48:47.223Z,4.82
2022-11-30T13:51:34.259Z,5.43
2022-11-30T13:54:27.231Z,5.55
2022-11-30T13:56:56.901Z,4.80
2022-11-30T13:59:36.289Z,4.72
2022-11-30T14:02:27.934Z,5.32
2022-11-30T14:05:14.432Z,4.40
2022-11-30T14:07:42.437Z,4.70
2022-11-30T14:10:28.129Z,5.00
2022-11-30T14:13:02.569Z,3.80
2022-11-30T14:15:34.219Z,4.85
2022-11-30T14:18:03.931Z,5.03
2022-11-30T14:20:37.793Z,5.03
2022-11-30T14:23:06.068Z,4.93
2022-11-30T14:25:34.731Z,5.20
2022-11-30T14:28:04.483Z,6.18
2022-11-30T14:30:33.246Z,6.57
2022-11-30T14:33:02.489Z,5.78
2022-11-30T14:35:31.313Z,5.43
2022-11-30T14:38:00.486Z,5.43
2022-11-30T14:40:29.778Z,6.30
2022-11-30T14:42:58.677Z,5.45
2022-11-30T14:45:28.804Z,5.10
2022-11-30T14:48:05.869Z,5.70
2022-11-30T14:50:33.703Z,4.50
2022-11-30T14:53:08.224Z,5.47
2022-11-30T14:55:39.729Z,4.60
2022-11-30T14:58:12.723Z,4.72
2022-11-30T15:00:43.465Z,4.57
2022-11-30T15:03:18.379Z,5.78
2022-11-30T15:05:45.963Z,4.88
2022-11-30T15:08:14.905Z,4.43
2022-11-30T15:10:42.584Z,6.45
2022-11-30T15:13:13.079Z,8.27
2022-11-30T15:15:50.457Z,5.60
2022-11-30T15:18:18.852Z,6.00
2022-11-30T15:20:53.896Z,5.55
2022-11-30T15:23:21.464Z,5.43
2022-11-30T15:25:50.948Z,6.38
2022-11-30T15:28:21.563Z,5.22
2022-11-30T15:30:53.476Z,5.82
2022-11-30T15:33:22.570Z,5.50
2022-11-30T15:36:16.009Z,5.70
2022-11-30T15:38:39.639Z,5.32
2022-11-30T15:41:08.702Z,5.32
2022-11-30T15:43:37.716Z,6.10
2022-11-30T15:46:09.024Z,5.43
2022-11-30T15:48:38.970Z,5.22
2022-11-30T15:51:07.711Z,6.80
2022-11-30T15:53:36.208Z,5.20
2022-11-30T15:56:06.027Z,6.05
2022-11-30T15:58:37.113Z,5.03
2022-11-30T16:01:09.371Z,5.30
2022-11-30T16:03:58.058Z,5.07
2022-11-30T16:06:27.101Z,4.90
2022-11-30T16:08:55.340Z,5.60
2022-11-30T16:11:23.761Z,5.72
2022-11-30T16:13:51.288Z,6.20
2022-11-30T16:16:21.842Z,5.20
2022-11-30T16:18:51.423Z,5.28
2022-11-30T16:21:20.426Z,5.50
2022-11-30T16:23:48.969Z,6.13
2022-11-30T16:26:43.650Z,4.78
2022-11-30T16:29:08.638Z,5.18
2022-11-30T16:31:40.901Z,6.90
2022-11-30T16:34:33.993Z,5.50
2022-11-30T16:37:07.522Z,6.03
2022-11-30T16:39:37.794Z,6.03
2022-11-30T16:42:10.952Z,5.97
2022-11-30T16:44:38.818Z,5.28
2022-11-30T16:47:21.205Z,6.35
2022-11-30T16:49:48.899Z,6.15
2022-11-30T16:52:17.711Z,6.57
2022-11-30T16:54:45.181Z,5.90
2022-11-30T16:57:12.708Z,5.35
2022-11-30T16:59:40.182Z,6.07
2022-11-30T17:02:15.510Z,6.50
2022-11-30T17:04:43.199Z,6.18
2022-11-30T17:07:10.660Z,5.85
2022-11-30T17:09:38.558Z,5.95
2022-11-30T17:12:06.666Z,6.65
2022-11-30T17:14:34.456Z,6.35
2022-11-30T17:17:02.099Z,6.00
2022-11-30T17:19:31.074Z,6.18
2022-11-30T17:21:58.841Z,6.82
2022-11-30T17:24:26.363Z,6.07
2022-11-30T17:26:53.902Z,7.03
2022-11-30T17:29:21.424Z,6.82
2022-11-30T17:31:48.935Z,6.35
2022-11-30T17:34:16.472Z,7.00
2022-11-30T17:36:45.735Z,7.20
2022-11-30T17:39:13.801Z,8.05
2022-11-30T17:41:41.621Z,7.43
2022-11-30T17:44:10.318Z,6.93
2022-11-30T17:46:38.744Z,7.20
2022-11-30T17:49:06.307Z,8.13
2022-11-30T17:51:33.983Z,6.72
2022-11-30T17:54:03.126Z,7.05
2022-11-30T17:56:30.658Z,7.53
2022-11-30T17:59:03.380Z,7.07
2022-11-30T18:01:31.039Z,7.07
2022-11-30T18:03:59.219Z,8.50
2022-11-30T18:06:27.778Z,6.60
2022-11-30T18:08:55.332Z,7.35
2022-11-30T18:11:25.107Z,6.97
2022-11-30T18:13:53.968Z,6.82
2022-11-30T18:16:25.238Z,7.93
2022-11-30T18:18:53.305Z,7.93
2022-11-30T18:21:21.852Z,6.88
2022-11-30T18:23:49.935Z,8.68
2022-11-30T18:26:18.492Z,7.60
2022-11-30T18:28:47.716Z,7.85
2022-11-30T18:31:15.245Z,7.68
2022-11-30T18:33:43.099Z,8.05
2022-11-30T18:36:10.980Z,8.52
2022-11-30T18:38:47.630Z,8.00
2022-11-30T18:41:15.126Z,8.98
2022-11-30T18:43:42.591Z,7.28
2022-11-30T18:46:12.174Z,8.60
2022-11-30T18:48:43.340Z,7.32
2022-11-30T18:51:11.641Z,8.68
2022-11-30T18:53:48.216Z,8.73
2022-11-30T18:56:16.797Z,7.60
2022-11-30T18:58:44.498Z,8.18
2022-11-30T19:01:14.691Z,8.10
2022-11-30T19:03:42.223Z,7.85
2022-11-30T19:06:10.783Z,8.10
2022-11-30T19:08:39.629Z,9.88
2022-11-30T19:11:08.954Z,9.60
2022-11-30T19:13:36.877Z,8.73
2022-11-30T19:16:05.070Z,8.90
2022-11-30T19:18:34.070Z,7.85
2022-11-30T19:21:02.543Z,8.50
2022-11-30T19:23:31.052Z,7.95
2022-11-30T19:26:02.845Z,8.60
2022-11-30T19:28:30.805Z,8.27
2022-11-30T19:30:58.633Z,8.55
2022-11-30T19:33:26.289Z,7.95
2022-11-30T19:36:00.583Z,8.43
2022-11-30T19:38:28.094Z,7.60
2022-11-30T19:40:55.566Z,7.25
2022-11-30T19:43:23.134Z,7.20
2022-11-30T19:45:50.668Z,8.32
2022-11-30T19:48:18.185Z,7.65
2022-11-30T19:50:45.901Z,7.18
2022-11-30T19:53:14.735Z,7.53
2022-11-30T19:55:42.335Z,7.25
2022-11-30T19:58:21.426Z,6.57
2022-11-30T20:00:49.640Z,6.65
2022-11-30T20:03:17.942Z,8.35
2022-11-30T20:05:49.184Z,6.70
2022-11-30T20:08:18.524Z,6.85
2022-11-30T20:10:46.051Z,6.88
2022-11-30T20:13:13.595Z,5.95
2022-11-30T20:15:44.302Z,7.60
2022-11-30T20:18:11.890Z,7.53
2022-11-30T20:20:39.413Z,7.03
2022-11-30T20:23:07.252Z,6.15
2022-11-30T20:25:36.100Z,6.88
2022-11-30T20:28:07.019Z,6.38
2022-11-30T20:30:37.350Z,5.45
2022-11-30T20:33:04.971Z,6.57
2022-11-30T20:35:34.578Z,6.32
2022-11-30T20:38:02.289Z,6.10
2022-11-30T20:40:29.878Z,6.50
2022-11-30T20:42:58.954Z,7.53
2022-11-30T20:45:26.409Z,7.07
2022-11-30T20:47:53.938Z,7.50
2022-11-30T20:50:21.514Z,8.40
2022-11-30T20:52:49.052Z,6.65
2022-11-30T20:55:16.957Z,6.35
2022-11-30T20:57:44.405Z,6.00
2022-11-30T21:00:16.005Z,6.32
2022-11-30T21:02:48.029Z,6.00
2022-11-30T21:05:18.854Z,5.72
2022-11-30T21:07:46.661Z,5.80
2022-11-30T21:10:14.969Z,5.82
2022-11-30T21:12:42.785Z,6.82
2022-11-30T21:15:11.705Z,6.25
2022-11-30T21:17:41.296Z,5.55
2022-11-30T21:20:10.939Z,4.65
2022-11-30T21:22:38.482Z,4.68
2022-11-30T21:25:06.873Z,4.78
2022-11-30T21:27:35.998Z,4.18
2022-11-30T21:30:03.605Z,4.60
2022-11-30T21:32:31.130Z,4.78
2022-11-30T21:35:00.977Z,4.22
2022-11-30T21:37:30.482Z,3.80
2022-11-30T21:39:58.110Z,4.18
2022-11-30T21:42:27.896Z,4.85
2022-11-30T21:44:55.382Z,4.88
2022-11-30T21:47:22.878Z,4.57
2022-11-30T21:49:52.754Z,4.22
2022-11-30T21:52:20.299Z,4.05
2022-11-30T21:54:53.499Z,4.80
2022-11-30T21:57:21.482Z,4.55
2022-11-30T21:59:50.509Z,3.85
2022-11-30T22:02:18.193Z,5.00
2022-11-30T22:04:46.067Z,4.07
2022-11-30T22:07:13.901Z,4.88
2022-11-30T22:09:51.976Z,3.92
2022-11-30T22:12:19.510Z,3.97
2022-11-30T22:14:47.040Z,4.20
2022-11-30T22:17:14.575Z,4.15
2022-11-30T22:19:42.046Z,4.03
2022-11-30T22:22:09.553Z,3.85
2022-11-30T22:24:39.438Z,3.65
2022-11-30T22:27:08.299Z,3.97
2022-11-30T22:29:35.901Z,4.20
2022-11-30T22:32:03.528Z,3.70
2022-11-30T22:34:31.397Z,4.35
2022-11-30T22:36:58.855Z,4.93
2022-11-30T22:39:26.347Z,3.83
2022-11-30T22:41:56.137Z,3.80
2022-11-30T22:44:26.412Z,4.15
2022-11-30T22:46:54.041Z,4.20
2022-11-30T22:49:25.232Z,3.30
2022-11-30T22:51:52.816Z,3.33
2022-11-30T22:54:20.328Z,3.38
2022-11-30T22:56:47.837Z,3.72
2022-11-30T22:59:15.797Z,3.13
2022-11-30T23:01:45.545Z,3.83
2022-11-30T23:04:14.822Z,4.55
2022-11-30T23:06:43.621Z,4.32
2022-11-30T23:09:12.483Z,3.30
2022-11-30T23:11:40.341Z,3.42
2022-11-30T23:14:08.926Z,3.47
2022-11-30T23:16:36.894Z,3.97
2022-11-30T23:19:06.244Z,3.50
2022-11-30T23:21:39.072Z,3.22
2022-11-30T23:24:08.929Z,3.55
2022-11-30T23:26:37.620Z,3.47
2022-11-30T23:29:06.207Z,4.82
2022-11-30T23:31:35.775Z,3.70
2022-11-30T23:34:05.393Z,3.58
2022-11-30T23:36:34.686Z,3.42
2022-11-30T23:39:03.005Z,4.03
2022-11-30T23:41:30.515Z,3.50
2022-11-30T23:43:58.135Z,3.78
2022-11-30T23:46:25.791Z,3.75
2022-11-30T23:48:54.929Z,4.60
2022-11-30T23:51:22.626Z,2.95
2022-11-30T23:53:51.412Z,3.20
2022-11-30T23:56:19.532Z,3.67
2022-11-30T23:58:47.223Z,3.80
